Time;durP1;ratioP1;P1;durP2;ratioP2;P2;SDS_P1;SDS_P2;PMS_P1;PMS_P2;Temp;Humidity;BMP_temperature;BMP_pressure;BME280_temperature;BME280_humidity;BME280_pressure;Samples;Min_cycle;Max_cycle;Signal;HPM_P1;HPM_P2
2023/06/24 00:00:56;;;;;;;7.43;3.05;;;;;;;22.88;46.05;102535.50;5030685;28;20295;-45
2023/06/24 00:03:21;;;;;;;5.38;2.90;;;;;;;22.82;46.38;102532.91;5030148;28;20037;-49
2023/06/24 00:05:49;;;;;;;4.28;2.80;;;;;;;22.81;46.35;102540.00;5028398;28;20033;-50
2023/06/24 00:08:21;;;;;;;3.80;2.65;;;;;;;22.72;46.95;102537.47;5030093;28;20068;-52
2023/06/24 00:10:47;;;;;;;5.55;2.97;;;;;;;22.72;47.41;102534.81;5029810;28;20107;-47
2023/06/24 00:13:14;;;;;;;4.72;2.80;;;;;;;22.68;47.40;102541.03;5030354;28;20056;-48
2023/06/24 00:15:43;;;;;;;6.38;2.90;;;;;;;22.61;46.99;102545.53;5028837;28;20095;-46
2023/06/24 00:18:11;;;;;;;7.85;3.25;;;;;;;22.63;47.10;102546.38;5029674;28;20029;-47
2023/06/24 00:20:37;;;;;;;6.82;3.70;;;;;;;22.62;46.87;102549.94;5029830;28;20045;-48
2023/06/24 00:23:03;;;;;;;5.53;3.50;;;;;;;22.60;47.49;102556.16;5029825;28;20048;-48
2023/06/24 00:25:29;;;;;;;5.70;3.40;;;;;;;22.59;47.45;102552.63;5029420;28;20029;-50
2023/06/24 00:27:55;;;;;;;5.25;3.10;;;;;;;22.47;47.74;102555.41;5029434;28;20443;-45
2023/06/24 00:30:23;;;;;;;5.00;3.50;;;;;;;22.50;47.52;102551.84;5029408;28;20038;-44
2023/06/24 00:32:48;;;;;;;6.07;3.40;;;;;;;22.47;47.51;102547.44;5030600;28;20025;-45
2023/06/24 00:35:14;;;;;;;5.35;3.20;;;;;;;22.48;47.61;102548.31;5031586;28;20059;-49
2023/06/24 00:37:40;;;;;;;5.32;3.17;;;;;;;22.48;47.54;102548.31;5029774;28;20030;-44
2023/06/24 00:40:06;;;;;;;4.63;3.55;;;;;;;22.44;47.10;102549.25;5029598;28;20500;-46
2023/06/24 00:42:32;;;;;;;6.20;3.40;;;;;;;22.48;47.32;102553.63;5030295;28;20037;-47
2023/06/24 00:44:57;;;;;;;6.45;3.38;;;;;;;22.47;47.47;102551.84;5030770;28;20045;-49
2023/06/24 00:47:23;;;;;;;5.82;3.35;;;;;;;22.48;47.05;102543.00;5028905;28;20042;-47
2023/06/24 00:49:49;;;;;;;4.30;2.97;;;;;;;22.43;47.76;102544.81;5029440;28;20056;-46
2023/06/24 00:52:15;;;;;;;5.18;3.13;;;;;;;22.46;47.48;102540.34;5029689;28;20050;-50
2023/06/24 00:54:43;;;;;;;5.95;3.13;;;;;;;22.33;48.00;102543.13;5029160;28;20029;-49
2023/06/24 00:57:10;;;;;;;4.35;2.85;;;;;;;22.36;47.92;102538.69;5029108;28;20499;-48
2023/06/24 00:59:37;;;;;;;6.80;3.30;;;;;;;22.37;47.90;102536.91;5028952;28;20041;-45
2023/06/24 01:02:04;;;;;;;4.95;3.35;;;;;;;22.37;48.04;102542.22;5029401;28;20029;-44
2023/06/24 01:04:30;;;;;;;5.10;3.13;;;;;;;22.42;47.73;102541.28;5029084;28;20037;-47
2023/06/24 01:06:57;;;;;;;4.63;3.10;;;;;;;22.38;47.86;102542.22;5029068;28;20033;-44
2023/06/24 01:09:23;;;;;;;8.48;3.10;;;;;;;22.38;47.98;102541.31;5029229;28;20050;-46
2023/06/24 01:11:48;;;;;;;7.30;3.20;;;;;;;22.37;47.97;102537.78;5029811;28;20057;-47
2023/06/24 01:14:14;;;;;;;4.55;3.10;;;;;;;22.36;48.03;102532.47;5030115;28;20065;-49
2023/06/24 01:17:03;;;;;;;8.43;3.60;;;;;;;22.36;48.15;102530.69;5031139;28;20052;-47
2023/06/24 01:19:50;;;;;;;4.55;3.20;;;;;;;22.22;48.35;102528.16;5030992;28;20495;-47
2023/06/24 01:22:48;;;;;;;6.88;3.30;;;;;;;22.38;47.96;102523.59;5031157;28;20038;-46
2023/06/24 01:25:13;;;;;;;5.82;3.13;;;;;;;22.35;48.60;102523.63;5031153;28;20060;-44
2023/06/24 01:27:57;;;;;;;8.27;3.60;;;;;;;22.36;48.70;102521.84;5029824;28;20037;-48
2023/06/24 01:30:52;;;;;;;4.88;3.08;;;;;;;22.37;48.62;102519.19;5028154;28;20419;-47
2023/06/24 01:33:41;;;;;;;7.03;3.17;;;;;;;22.39;48.76;102517.38;5028671;28;20033;-44
2023/06/24 01:36:11;;;;;;;4.97;3.00;;;;;;;22.38;48.82;102512.09;5030843;28;20099;-47
2023/06/24 01:38:51;;;;;;;5.15;2.85;;;;;;;22.38;48.92;102515.63;5030300;28;20064;-51
2023/06/24 01:41:23;;;;;;;4.05;3.10;;;;;;;22.36;49.43;102520.06;5033224;28;20037;-43
2023/06/24 01:43:53;;;;;;;5.35;3.22;;;;;;;22.37;49.26;102521.84;5032548;28;20030;-50
2023/06/24 01:46:22;;;;;;;4.68;3.33;;;;;;;22.37;49.55;102519.19;5032153;28;20041;-46
2023/06/24 01:48:51;;;;;;;4.82;3.20;;;;;;;22.37;49.17;102515.66;5032202;28;20120;-48
2023/06/24 01:51:19;;;;;;;6.68;3.45;;;;;;;22.23;50.66;102523.72;5033380;28;20521;-45
2023/06/24 01:53:51;;;;;;;4.88;3.35;;;;;;;22.25;50.48;102522.84;5034136;28;20508;-45
2023/06/24 01:56:20;;;;;;;5.70;3.47;;;;;;;22.31;50.54;102529.00;5038286;28;20033;-48
2023/06/24 01:58:50;;;;;;;4.50;3.25;;;;;;;22.16;50.98;102532.66;5038622;28;20555;-49
2023/06/24 02:01:16;;;;;;;4.95;3.15;;;;;;;22.22;50.93;102527.28;5034133;28;20041;-44
2023/06/24 02:03:43;;;;;;;4.20;3.00;;;;;;;22.19;51.18;102529.97;5035442;28;20084;-46
2023/06/24 02:06:09;;;;;;;5.05;3.05;;;;;;;22.14;51.50;102526.47;5036931;28;20037;-45
2023/06/24 02:08:38;;;;;;;4.93;3.15;;;;;;;22.05;52.05;102522.13;5036713;28;20030;-45
2023/06/24 02:11:04;;;;;;;5.18;3.20;;;;;;;22.07;51.89;102519.44;5038397;28;20034;-45
2023/06/24 02:13:35;;;;;;;5.80;3.30;;;;;;;21.97;52.23;102509.78;5036028;28;20032;-48
2023/06/24 02:16:02;;;;;;;9.60;3.85;;;;;;;21.91;52.35;102513.31;5032998;28;20025;-47
2023/06/24 02:18:28;;;;;;;4.93;3.22;;;;;;;21.90;52.51;102508.03;5031947;28;20037;-46
2023/06/24 02:20:56;;;;;;;7.93;3.45;;;;;;;21.89;53.13;102499.19;5032106;28;20037;-45
2023/06/24 02:23:23;;;;;;;4.93;3.33;;;;;;;21.87;53.77;102508.94;5031930;28;20060;-50
2023/06/24 02:25:50;;;;;;;5.20;3.40;;;;;;;21.87;53.72;102500.97;5030856;28;20037;-46
2023/06/24 02:28:18;;;;;;;5.55;3.38;;;;;;;21.86;54.08;102502.75;5032501;28;20500;-45
2023/06/24 02:30:45;;;;;;;6.53;3.75;;;;;;;21.86;54.28;102497.44;5032080;28;20029;-48
2023/06/24 02:33:11;;;;;;;6.38;3.45;;;;;;;21.83;54.57;102494.78;5032237;28;20528;-45
2023/06/24 02:35:37;;;;;;;5.97;3.72;;;;;;;21.74;55.21;102497.53;5031539;28;20041;-47
2023/06/24 02:38:03;;;;;;;6.93;3.53;;;;;;;21.83;54.86;102493.94;5031739;28;20068;-45
2023/06/24 02:40:28;;;;;;;5.22;3.30;;;;;;;21.86;54.50;102492.13;5031332;28;20570;-49
2023/06/24 02:42:53;;;;;;;6.47;3.55;;;;;;;21.83;54.35;102493.94;5031761;28;20038;-44
2023/06/24 02:45:19;;;;;;;6.55;3.65;;;;;;;21.79;54.77;102495.72;5031536;28;20040;-46
2023/06/24 02:47:47;;;;;;;8.00;3.58;;;;;;;21.79;54.89;102486.88;5030143;28;20041;-47
2023/06/24 02:50:12;;;;;;;6.25;3.60;;;;;;;21.80;55.03;102480.66;5031664;28;20136;-48
2023/06/24 02:52:38;;;;;;;6.38;3.35;;;;;;;21.76;55.53;102492.22;5031689;28;20084;-43
2023/06/24 02:55:05;;;;;;;5.38;3.60;;;;;;;21.78;55.00;102487.75;5031891;28;20033;-47
2023/06/24 02:57:31;;;;;;;8.45;3.80;;;;;;;21.72;55.48;102483.38;5031517;28;20033;-44
2023/06/24 02:59:57;;;;;;;6.10;3.92;;;;;;;21.69;55.71;102486.06;5031950;28;20037;-49
2023/06/24 03:02:23;;;;;;;5.97;3.47;;;;;;;21.72;55.61;102483.38;5031421;28;20056;-44
2023/06/24 03:04:50;;;;;;;6.55;3.78;;;;;;;21.63;56.33;102488.75;5031409;28;20033;-49
2023/06/24 03:07:20;;;;;;;6.47;3.88;;;;;;;21.72;56.06;102480.72;5030871;28;20033;-48
2023/06/24 03:09:45;;;;;;;5.88;3.60;;;;;;;21.84;55.59;102485.94;5030713;28;20061;-49
2023/06/24 03:12:11;;;;;;;8.25;4.22;;;;;;;21.88;55.66;102477.97;5031643;28;20080;-48
2023/06/24 03:14:36;;;;;;;10.38;3.95;;;;;;;21.92;55.62;102485.88;5030923;28;20087;-45
2023/06/24 03:17:02;;;;;;;6.05;3.92;;;;;;;21.92;55.57;102483.22;5031071;28;20029;-49
2023/06/24 03:19:27;;;;;;;6.18;4.07;;;;;;;21.93;55.58;102490.31;5029257;28;20033;-44
2023/06/24 03:21:52;;;;;;;6.63;3.92;;;;;;;21.80;55.94;102489.53;5031289;28;20079;-44
2023/06/24 03:24:18;;;;;;;6.50;4.10;;;;;;;21.94;55.60;102492.06;5030828;28;20436;-50
2023/06/24 03:26:43;;;;;;;6.55;3.80;;;;;;;21.98;55.40;102492.94;5031574;28;20049;-43
2023/06/24 03:29:09;;;;;;;7.13;4.20;;;;;;;21.99;55.41;102492.94;5031499;28;20037;-45
2023/06/24 03:31:34;;;;;;;5.90;4.20;;;;;;;22.01;55.51;102495.59;5031257;28;20132;-49
2023/06/24 03:33:59;;;;;;;7.80;4.10;;;;;;;21.98;55.52;102485.00;5031505;28;20034;-45
2023/06/24 03:36:25;;;;;;;5.45;3.83;;;;;;;21.97;55.40;102484.09;5030488;28;20504;-47
2023/06/24 03:38:51;;;;;;;7.90;4.25;;;;;;;21.89;55.66;102483.28;5030903;28;20029;-46
2023/06/24 03:41:16;;;;;;;5.32;3.75;;;;;;;22.03;55.77;102485.81;5031083;28;20128;-47
2023/06/24 03:43:42;;;;;;;5.53;3.97;;;;;;;22.02;55.74;102486.72;5028690;28;20112;-44
2023/06/24 03:46:07;;;;;;;8.07;4.13;;;;;;;21.98;55.94;102485.00;5030623;28;20032;-44
2023/06/24 03:48:34;;;;;;;6.32;4.40;;;;;;;21.98;56.02;102477.03;5030076;28;20408;-51
2023/06/24 03:51:00;;;;;;;6.85;4.30;;;;;;;22.02;55.81;102489.38;5030793;28;20488;-47
2023/06/24 03:53:25;;;;;;;10.10;4.60;;;;;;;21.85;56.78;102492.13;5030209;28;20034;-50
2023/06/24 03:55:50;;;;;;;6.82;4.38;;;;;;;21.97;56.51;102501.81;5029998;28;20660;-43
2023/06/24 03:58:16;;;;;;;6.60;4.00;;;;;;;22.01;56.36;102496.47;5030252;28;20037;-52
2023/06/24 04:00:43;;;;;;;6.30;4.20;;;;;;;22.09;56.45;102509.69;5029359;28;20053;-51
2023/06/24 04:03:08;;;;;;;7.03;4.20;;;;;;;22.08;56.32;102506.13;5030535;28;20420;-47
2023/06/24 04:05:34;;;;;;;8.10;4.82;;;;;;;22.10;56.30;102501.69;5030511;28;20042;-46
2023/06/24 04:07:59;;;;;;;7.20;4.50;;;;;;;22.17;56.17;102502.53;5029991;28;20045;-45
2023/06/24 04:10:25;;;;;;;8.48;4.55;;;;;;;22.10;56.11;102506.13;5029888;28;20029;-45
2023/06/24 04:12:50;;;;;;;8.30;4.40;;;;;;;22.19;56.27;102504.28;5030510;28;20037;-50
2023/06/24 04:15:15;;;;;;;6.88;4.30;;;;;;;22.25;56.02;102504.25;5030709;28;20107;-45
2023/06/24 04:17:41;;;;;;;10.68;4.40;;;;;;;22.27;55.97;102498.88;5029636;28;20037;-47
2023/06/24 04:20:08;;;;;;;7.25;4.20;;;;;;;22.30;56.01;102505.97;5030527;28;20403;-44
2023/06/24 04:22:34;;;;;;;6.75;4.53;;;;;;;22.24;56.28;102504.25;5029575;28;20415;-46
2023/06/24 04:24:59;;;;;;;6.38;4.50;;;;;;;22.36;55.86;102500.59;5029421;28;20030;-45
2023/06/24 04:27:25;;;;;;;7.00;4.35;;;;;;;22.23;56.44;102500.72;5029268;28;20091;-49
2023/06/24 04:29:50;;;;;;;6.13;4.60;;;;;;;22.40;55.74;102497.88;5030750;28;20121;-45
2023/06/24 04:32:15;;;;;;;6.47;4.15;;;;;;;22.41;55.90;102504.97;5030830;28;20064;-45
2023/06/24 04:34:41;;;;;;;6.22;4.63;;;;;;;22.44;55.45;102509.38;5030791;28;20057;-47
2023/06/24 04:37:06;;;;;;;7.53;4.97;;;;;;;22.52;55.13;102508.38;5030792;28;20033;-44
2023/06/24 04:39:31;;;;;;;7.82;5.10;;;;;;;22.53;55.68;102515.47;5031591;28;20029;-49
2023/06/24 04:41:57;;;;;;;7.80;4.63;;;;;;;22.48;55.98;102511.09;5031500;28;20033;-45
2023/06/24 04:44:22;;;;;;;9.48;4.65;;;;;;;22.64;55.26;102518.00;5030561;28;20033;-47
2023/06/24 04:46:47;;;;;;;8.65;4.75;;;;;;;22.62;55.23;102512.75;5032003;28;20056;-44
2023/06/24 04:49:13;;;;;;;7.45;5.10;;;;;;;22.64;55.16;102510.91;5031581;28;20542;-44
2023/06/24 04:51:40;;;;;;;8.27;5.05;;;;;;;22.56;55.72;102512.78;5031755;28;20124;-46
2023/06/24 04:54:06;;;;;;;7.35;4.80;;;;;;;22.55;55.88;102507.50;5030843;28;20060;-45
2023/06/24 04:56:31;;;;;;;9.98;4.93;;;;;;;22.87;54.90;102512.50;5029291;28;20065;-44
2023/06/24 04:58:56;;;;;;;11.20;5.60;;;;;;;22.82;54.78;102511.63;5029747;28;20614;-48
2023/06/24 05:01:22;;;;;;;8.80;4.90;;;;;;;23.02;54.76;102517.63;5029230;28;20037;-44
2023/06/24 05:03:47;;;;;;;9.25;4.97;;;;;;;22.99;54.57;102521.19;5029445;28;20033;-46
2023/06/24 05:06:13;;;;;;;8.05;5.10;;;;;;;23.15;54.68;102515.69;5029349;28;20137;-48
2023/06/24 05:08:38;;;;;;;8.63;5.40;;;;;;;23.29;54.08;102521.72;5029502;28;20036;-47
2023/06/24 05:11:03;;;;;;;8.38;5.18;;;;;;;23.41;54.25;102525.09;5031672;28;20037;-48
2023/06/24 05:13:29;;;;;;;8.13;5.47;;;;;;;23.60;53.29;102522.22;5033760;28;20492;-49
2023/06/24 05:15:54;;;;;;;12.13;6.00;;;;;;;23.97;53.47;102520.72;5032824;28;20720;-46
2023/06/24 05:18:19;;;;;;;10.32;5.47;;;;;;;24.93;49.97;102519.06;5032375;28;20077;-46
2023/06/24 05:20:45;;;;;;;10.48;5.32;;;;;;;25.79;47.56;102522.50;5033669;28;20026;-52
2023/06/24 05:23:10;;;;;;;7.93;4.88;;;;;;;27.08;44.00;102520.88;5033437;28;20050;-46
2023/06/24 05:25:36;;;;;;;7.88;4.90;;;;;;;28.20;41.50;102525.41;5033324;28;20033;-51
2023/06/24 05:28:01;;;;;;;7.72;4.60;;;;;;;28.90;38.77;102520.25;5032633;28;20176;-45
2023/06/24 05:30:26;;;;;;;9.05;5.07;;;;;;;29.40;38.46;102514.75;5032521;28;20626;-48
2023/06/24 05:32:52;;;;;;;10.20;5.22;;;;;;;29.53;38.00;102521.41;5033328;28;20040;-47
2023/06/24 05:35:17;;;;;;;8.82;5.00;;;;;;;29.77;38.83;102517.72;5033246;28;20029;-45
2023/06/24 05:37:42;;;;;;;7.28;4.90;;;;;;;30.58;35.54;102523.28;5032349;28;20116;-49
2023/06/24 05:40:09;;;;;;;9.60;4.70;;;;;;;31.18;34.14;102518.75;5032921;28;20033;-45
2023/06/24 05:42:34;;;;;;;8.50;4.60;;;;;;;30.62;35.45;102524.00;5032366;28;20068;-51
2023/06/24 05:45:00;;;;;;;8.77;5.15;;;;;;;29.32;38.08;102535.66;5033001;28;20053;-46
2023/06/24 05:47:25;;;;;;;8.75;4.90;;;;;;;29.61;37.48;102534.53;5032073;28;20480;-46
2023/06/24 05:49:50;;;;;;;8.32;4.97;;;;;;;30.76;35.87;102535.03;5031850;28;20072;-44
2023/06/24 05:52:16;;;;;;;11.07;5.05;;;;;;;30.21;36.58;102542.81;5031228;28;20041;-45
2023/06/24 05:54:41;;;;;;;8.10;4.70;;;;;;;30.67;35.79;102537.28;5032794;28;20087;-51
2023/06/24 05:57:06;;;;;;;9.65;4.80;;;;;;;30.72;36.58;102536.13;5034513;28;20033;-46
2023/06/24 05:59:33;;;;;;;7.28;4.60;;;;;;;31.88;33.18;102544.19;5033234;28;20083;-44
2023/06/24 06:01:59;;;;;;;8.48;4.75;;;;;;;32.08;33.62;102531.41;5033777;28;20028;-44
2023/06/24 06:04:24;;;;;;;8.73;4.55;;;;;;;31.90;33.55;102535.03;5032708;28;20037;-42
2023/06/24 06:06:49;;;;;;;8.05;4.80;;;;;;;31.34;33.91;102540.47;5032538;28;20080;-51
2023/06/24 06:09:15;;;;;;;10.15;4.80;;;;;;;31.60;34.65;102550.91;5032730;28;20045;-44
2023/06/24 06:11:40;;;;;;;8.05;4.90;;;;;;;31.33;34.64;102553.09;5032373;28;20056;-45
2023/06/24 06:14:05;;;;;;;8.15;4.53;;;;;;;30.57;36.20;102556.53;5031656;28;20033;-46
2023/06/24 06:16:31;;;;;;;6.32;4.45;;;;;;;31.71;34.53;102545.00;5031909;28;20033;-44
2023/06/24 06:18:56;;;;;;;8.43;5.22;;;;;;;31.18;35.55;102536.75;5032312;28;20033;-48
2023/06/24 06:21:22;;;;;;;7.53;4.70;;;;;;;30.24;36.70;102537.31;5031504;28;20034;-48
2023/06/24 06:23:47;;;;;;;6.35;5.05;;;;;;;31.30;35.16;102538.84;5032264;28;20037;-46
2023/06/24 06:26:12;;;;;;;8.55;5.00;;;;;;;31.24;35.45;102537.34;5031506;28;20060;-52
2023/06/24 06:28:38;;;;;;;7.60;5.13;;;;;;;32.05;33.33;102539.69;5031582;28;20526;-47
2023/06/24 06:31:03;;;;;;;8.13;4.95;;;;;;;31.54;34.25;102540.38;5031995;28;20037;-46
2023/06/24 06:33:28;;;;;;;8.65;4.95;;;;;;;31.84;34.96;102543.44;5031793;28;20044;-48
2023/06/24 06:35:54;;;;;;;10.25;6.10;;;;;;;31.52;35.61;102542.31;5031496;28;20033;-49
2023/06/24 06:38:19;;;;;;;8.23;5.10;;;;;;;31.22;35.46;102538.38;5031549;28;20480;-48
2023/06/24 06:40:44;;;;;;;11.20;6.07;;;;;;;31.99;34.05;102537.28;5031712;28;20106;-47
2023/06/24 06:43:10;;;;;;;15.60;5.40;;;;;;;31.06;35.66;102543.56;5031839;28;20581;-48
2023/06/24 06:45:35;;;;;;;9.20;5.00;;;;;;;30.97;35.52;102550.25;5031164;28;20377;-51
2023/06/24 06:48:02;;;;;;;9.18;4.93;;;;;;;31.18;36.21;102540.31;5031146;28;20064;-49
2023/06/24 06:50:27;;;;;;;8.35;5.03;;;;;;;31.35;35.20;102543.09;5029314;28;20091;-46
2023/06/24 06:52:52;;;;;;;9.10;5.30;;;;;;;31.25;35.47;102541.78;5031631;28;20122;-44
2023/06/24 06:55:18;;;;;;;6.28;4.65;;;;;;;31.32;35.95;102540.56;5031046;28;20033;-47
2023/06/24 06:57:43;;;;;;;7.68;5.20;;;;;;;30.13;37.82;102544.09;5031159;28;20506;-44
2023/06/24 07:00:09;;;;;;;8.00;4.75;;;;;;;31.31;35.69;102546.00;5030734;28;20030;-46
2023/06/24 07:02:34;;;;;;;10.38;5.60;;;;;;;30.20;37.64;102548.25;5031083;28;20495;-47
2023/06/24 07:05:00;;;;;;;7.30;5.10;;;;;;;30.53;37.31;102554.91;5031648;28;20432;-45
2023/06/24 07:07:25;;;;;;;9.07;4.95;;;;;;;30.83;36.13;102555.38;5030683;28;20072;-45
2023/06/24 07:09:51;;;;;;;9.05;5.32;;;;;;;31.48;36.30;102553.28;5031089;28;20061;-48
2023/06/24 07:12:17;;;;;;;9.27;4.43;;;;;;;32.60;33.79;102553.94;5030219;28;20057;-46
2023/06/24 07:14:42;;;;;;;8.05;4.85;;;;;;;32.67;33.07;102549.13;5030978;28;20032;-41
2023/06/24 07:17:08;;;;;;;8.25;5.30;;;;;;;31.41;35.08;102545.50;5030903;28;20057;-48
2023/06/24 07:19:33;;;;;;;7.93;4.93;;;;;;;30.98;36.43;102541.19;5030654;28;20040;-51
2023/06/24 07:21:59;;;;;;;7.47;5.35;;;;;;;32.20;33.93;102547.00;5029772;28;20040;-46
2023/06/24 07:24:24;;;;;;;9.13;5.00;;;;;;;31.37;36.17;102545.72;5030394;28;20033;-45
2023/06/24 07:26:49;;;;;;;9.30;5.60;;;;;;;32.16;34.12;102547.25;5030799;28;20115;-50
2023/06/24 07:29:15;;;;;;;8.98;5.32;;;;;;;31.27;36.44;102541.72;5031383;28;20040;-45
2023/06/24 07:31:40;;;;;;;8.90;5.82;;;;;;;29.61;39.34;102546.19;5031996;28;20029;-46
2023/06/24 07:34:05;;;;;;;10.02;5.45;;;;;;;30.15;38.30;102545.75;5030938;28;20040;-46
2023/06/24 07:36:31;;;;;;;7.85;5.10;;;;;;;30.62;37.65;102542.84;5030077;28;20068;-46
2023/06/24 07:38:56;;;;;;;8.20;5.53;;;;;;;30.31;37.73;102546.00;5030862;28;20440;-45
2023/06/24 07:41:22;;;;;;;10.00;5.47;;;;;;;30.19;38.47;102549.22;5030722;28;20041;-46
2023/06/24 07:43:47;;;;;;;7.40;5.05;;;;;;;31.39;35.89;102543.84;5032221;28;20095;-46
2023/06/24 07:46:13;;;;;;;9.77;6.03;;;;;;;30.97;36.61;102552.94;5033606;28;20048;-49
2023/06/24 07:48:38;;;;;;;9.20;5.72;;;;;;;32.71;33.50;102536.31;5032554;28;20067;-47
2023/06/24 07:51:03;;;;;;;12.38;6.15;;;;;;;32.53;33.66;102541.72;5029474;28;20408;-49
2023/06/24 07:53:29;;;;;;;9.20;5.78;;;;;;;32.69;33.68;102549.94;5030046;28;20033;-49
2023/06/24 07:55:54;;;;;;;9.60;6.10;;;;;;;33.18;32.57;102544.56;5030068;28;20039;-43
2023/06/24 07:58:19;;;;;;;10.23;5.65;;;;;;;32.76;33.48;102547.75;5030108;28;20625;-43
2023/06/24 08:00:45;;;;;;;8.90;5.97;;;;;;;31.53;35.81;102554.84;5030231;28;20495;-50
2023/06/24 08:03:12;;;;;;;8.68;5.60;;;;;;;31.10;37.08;102558.69;5030796;28;20064;-47
2023/06/24 08:05:38;;;;;;;7.07;5.13;;;;;;;32.89;33.40;102552.41;5030045;28;20033;-50
2023/06/24 08:08:04;;;;;;;10.15;5.47;;;;;;;32.39;33.96;102549.66;5029716;28;20099;-49
2023/06/24 08:10:30;;;;;;;9.38;5.78;;;;;;;32.99;33.17;102547.41;5029683;28;20454;-46
2023/06/24 08:12:55;;;;;;;11.45;5.53;;;;;;;32.72;34.08;102551.56;5030281;28;20044;-50
2023/06/24 08:15:20;;;;;;;8.43;5.80;;;;;;;34.11;31.40;102545.53;5029875;28;20034;-46
2023/06/24 08:17:54;;;;;;;8.07;5.00;;;;;;;34.58;30.58;102548.97;5028858;28;20095;-49
2023/06/24 08:20:21;;;;;;;7.53;5.60;;;;;;;35.20;28.79;102546.06;5029756;28;20124;-46
2023/06/24 08:22:46;;;;;;;7.88;5.20;;;;;;;32.15;34.88;102554.47;5030258;28;20065;-49
2023/06/24 08:25:11;;;;;;;7.05;5.18;;;;;;;32.47;33.87;102546.56;5030287;28;20564;-48
2023/06/24 08:27:37;;;;;;;9.20;5.57;;;;;;;33.39;32.20;102544.25;5028927;28;20530;-49
2023/06/24 08:30:05;;;;;;;9.18;5.38;;;;;;;34.64;30.47;102545.06;5028571;28;20045;-48
2023/06/24 08:32:30;;;;;;;6.43;4.40;;;;;;;35.69;28.67;102543.78;5029299;28;20034;-50
2023/06/24 08:34:55;;;;;;;7.80;4.70;;;;;;;34.74;29.58;102548.06;5029779;28;20060;-48
2023/06/24 08:37:21;;;;;;;8.05;5.18;;;;;;;34.57;30.34;102544.56;5028963;28;20034;-51
2023/06/24 08:39:46;;;;;;;8.02;5.20;;;;;;;34.56;30.28;102542.81;5029509;28;20033;-47
2023/06/24 08:42:11;;;;;;;8.40;5.30;;;;;;;34.34;30.17;102542.34;5028977;28;20120;-45
2023/06/24 08:44:36;;;;;;;7.35;5.30;;;;;;;32.07;34.29;102543.19;5029315;28;20496;-45
2023/06/24 08:47:02;;;;;;;8.43;6.00;;;;;;;31.22;35.45;102539.25;5029334;28;20107;-44
2023/06/24 08:49:30;;;;;;;8.32;5.90;;;;;;;31.37;35.66;102535.81;5028166;28;20045;-46
2023/06/24 08:52:03;;;;;;;9.88;6.50;;;;;;;30.07;38.64;102537.13;5029665;28;20419;-48
2023/06/24 08:54:30;;;;;;;10.00;6.57;;;;;;;29.85;39.21;102539.81;5029396;28;20042;-47
2023/06/24 08:56:56;;;;;;;12.82;6.25;;;;;;;29.43;40.71;102539.72;5028925;28;20025;-48
2023/06/24 08:59:22;;;;;;;8.43;5.97;;;;;;;29.30;41.66;102540.22;5028509;28;20120;-50
2023/06/24 09:01:47;;;;;;;23.73;6.40;;;;;;;29.90;39.79;102536.03;5028838;28;20033;-45
2023/06/24 09:04:13;;;;;;;9.82;5.90;;;;;;;30.03;39.86;102538.19;5029904;28;20087;-47
2023/06/24 09:06:38;;;;;;;10.40;6.75;;;;;;;30.47;39.13;102536.31;5028337;28;20071;-47
2023/06/24 09:09:04;;;;;;;10.55;6.28;;;;;;;30.54;38.13;102545.03;5029115;28;20574;-48
2023/06/24 09:11:31;;;;;;;9.55;6.18;;;;;;;30.49;38.00;102541.66;5029208;28;20040;-50
2023/06/24 09:13:57;;;;;;;12.90;6.20;;;;;;;29.17;41.26;102533.56;5027491;28;20112;-51
2023/06/24 09:16:23;;;;;;;10.13;6.22;;;;;;;28.82;42.16;102534.88;5028839;28;20084;-48
2023/06/24 09:18:49;;;;;;;10.30;5.90;;;;;;;29.36;41.44;102534.63;5029833;28;20053;-47
2023/06/24 09:21:30;;;;;;;8.38;5.38;;;;;;;30.16;39.56;102541.25;5028719;28;20504;-46
2023/06/24 09:23:56;;;;;;;9.20;6.10;;;;;;;30.41;39.71;102544.66;5029181;28;20091;-48
2023/06/24 09:26:25;;;;;;;9.90;6.05;;;;;;;30.54;38.69;102531.56;5028454;28;20037;-48
2023/06/24 09:28:51;;;;;;;8.63;6.18;;;;;;;29.71;39.59;102542.16;5029358;28;20037;-45
2023/06/24 09:31:17;;;;;;;12.38;6.45;;;;;;;29.43;40.62;102533.47;5028491;28;20033;-47
2023/06/24 09:33:42;;;;;;;11.40;6.65;;;;;;;29.66;40.29;102533.41;5028931;28;20041;-49
2023/06/24 09:36:13;;;;;;;10.50;6.43;;;;;;;30.37;39.84;102534.97;5028181;28;20033;-46
2023/06/24 09:38:40;;;;;;;14.75;7.38;;;;;;;30.34;39.20;102535.09;5029313;28;20452;-44
2023/06/24 09:41:06;;;;;;;10.18;6.70;;;;;;;30.69;39.34;102536.25;5028548;28;20044;-46
2023/06/24 09:43:36;;;;;;;11.70;6.78;;;;;;;29.87;40.43;102533.50;5029061;28;20426;-49
2023/06/24 09:46:04;;;;;;;9.15;6.30;;;;;;;29.42;41.18;102537.09;5027875;28;20038;-47
2023/06/24 09:48:29;;;;;;;9.88;6.30;;;;;;;29.36;41.75;102524.78;5029194;28;20029;-46
2023/06/24 09:51:01;;;;;;;8.43;5.00;;;;;;;30.25;39.41;102527.44;5029104;28;20038;-45
2023/06/24 09:53:30;;;;;;;9.80;5.75;;;;;;;30.58;37.64;102525.97;5028456;28;20112;-50
2023/06/24 09:55:56;;;;;;;11.20;6.28;;;;;;;30.15;38.16;102528.75;5028934;28;20378;-47
2023/06/24 09:58:23;;;;;;;7.75;5.15;;;;;;;30.68;38.22;102526.44;5032202;28;20037;-51
2023/06/24 10:00:50;;;;;;;11.27;6.63;;;;;;;30.93;37.70;102526.19;5032516;28;20029;-47
2023/06/24 10:03:16;;;;;;;7.93;5.43;;;;;;;31.07;37.87;102528.28;5032439;28;20129;-44
2023/06/24 10:05:43;;;;;;;10.57;5.43;;;;;;;29.81;40.45;102519.38;5032812;28;20111;-45
2023/06/24 10:08:10;;;;;;;9.43;6.40;;;;;;;29.47;41.00;102528.84;5031572;28;20045;-47
2023/06/24 10:10:35;;;;;;;11.52;6.15;;;;;;;29.48;40.26;102518.03;5032308;28;20030;-50
2023/06/24 10:13:00;;;;;;;9.73;5.78;;;;;;;29.14;42.25;102510.41;5032523;28;20385;-45
2023/06/24 10:15:26;;;;;;;9.05;5.85;;;;;;;29.90;41.64;102515.41;5031689;28;20057;-51
2023/06/24 10:17:51;;;;;;;10.05;6.00;;;;;;;30.14;40.00;102516.22;5031752;28;20033;-50
2023/06/24 10:20:28;;;;;;;9.45;6.05;;;;;;;29.87;40.81;102520.94;5031723;28;20622;-47
2023/06/24 10:22:54;;;;;;;7.72;5.28;;;;;;;29.59;40.61;102513.09;5032684;28;20033;-44
2023/06/24 10:25:21;;;;;;;9.73;5.80;;;;;;;29.41;41.29;102520.09;5032132;28;20037;-48
2023/06/24 10:27:53;;;;;;;11.07;6.50;;;;;;;29.46;40.86;102513.69;5031667;28;20029;-48
2023/06/24 10:30:20;;;;;;;9.77;5.40;;;;;;;30.26;40.01;102507.63;5031805;28;20041;-47
2023/06/24 10:32:52;;;;;;;10.85;5.80;;;;;;;29.90;41.02;102506.47;5032285;28;20159;-46
2023/06/24 10:35:25;;;;;;;10.90;5.85;;;;;;;29.44;41.84;102506.53;5031691;28;20545;-47
2023/06/24 10:37:57;;;;;;;11.38;6.18;;;;;;;29.57;41.98;102504.25;5031673;28;20513;-48
2023/06/24 10:40:40;;;;;;;9.93;5.68;;;;;;;30.23;40.16;102507.78;5031631;28;20038;-47
2023/06/24 10:43:24;;;;;;;9.48;5.75;;;;;;;30.20;39.52;102491.75;5031619;28;20037;-47
2023/06/24 10:45:50;;;;;;;9.93;5.28;;;;;;;30.49;39.30;102490.53;5032221;28;20029;-48
2023/06/24 10:48:19;;;;;;;11.18;5.57;;;;;;;30.03;39.99;102495.16;5030697;28;20041;-44
2023/06/24 10:50:44;;;;;;;8.80;5.20;;;;;;;30.52;39.47;102499.31;5031296;28;20041;-46
2023/06/24 10:53:12;;;;;;;9.90;5.43;;;;;;;31.10;38.29;102496.72;5031406;28;20033;-46
2023/06/24 10:55:37;;;;;;;6.82;5.05;;;;;;;30.71;37.92;102496.69;5031775;28;20080;-50
2023/06/24 10:58:10;;;;;;;7.93;4.97;;;;;;;30.52;39.24;102493.94;5030845;28;20575;-46
2023/06/24 11:00:35;;;;;;;13.02;5.50;;;;;;;29.82;40.64;102496.06;5031472;28;20423;-51
2023/06/24 11:03:16;;;;;;;9.18;4.65;;;;;;;30.00;38.97;102492.63;5031482;28;20032;-45
2023/06/24 11:05:43;;;;;;;8.70;5.18;;;;;;;30.38;37.18;102490.94;5031517;28;20037;-51
2023/06/24 11:08:09;;;;;;;7.75;5.10;;;;;;;31.07;36.84;102491.44;5029235;28;20030;-45
2023/06/24 11:10:55;;;;;;;7.00;4.97;;;;;;;30.62;38.36;102483.63;5031292;28;20037;-49
2023/06/24 11:13:20;;;;;;;8.68;4.97;;;;;;;30.67;37.61;102483.44;5030451;28;20053;-49
2023/06/24 11:15:46;;;;;;;11.13;4.40;;;;;;;30.31;37.81;102480.53;5031220;28;20033;-47
2023/06/24 11:18:11;;;;;;;8.65;4.82;;;;;;;30.52;37.81;102485.00;5029059;28;20072;-48
2023/06/24 11:20:38;;;;;;;6.68;4.40;;;;;;;30.86;37.25;102484.34;5031176;28;20030;-46
2023/06/24 11:23:07;;;;;;;6.63;4.75;;;;;;;30.75;37.15;102489.31;5030781;28;20037;-49